Powersville, Georgia
Current Conditions -  °F | °C
As of 2:53 AM on Sunday 23 Nov 2014 (Local Time) from KMCN Reporting Station
Moderate Rain Moderate Rain  
Wind Chill: 54°   Ceiling: 600
Heat Index: 54°   Visibility: 4mi
Dew Point: 54°   Wind: 7mph
Humidity: 100%   Direction: 70°ENE
Pressure: 30.11"   Gusts: NA
Location:  32.6425°N, 83.775°W
Report Text: KMCN 230753Z AUTO 07006KT 4SM RA BR OVC006 12/12 A3011 RMK AO2 SLP194 P0009 T01220122 TSNO
Loading
Personal Weather Stations






























Interactive Weather Map New forecast layout! Learn more

10-Day Weather Forecast

Advertisements
Track Severe Weather on mobile